createdAt,value
2018-10-12T00:00:14.361Z,20.33
2018-10-12T00:02:43.959Z,20.53
2018-10-12T00:05:13.485Z,20.97
2018-10-12T00:07:43.050Z,22.80
2018-10-12T00:10:12.420Z,22.07
2018-10-12T00:12:41.943Z,19.27
2018-10-12T00:15:11.215Z,17.70
2018-10-12T00:17:40.195Z,21.63
2018-10-12T00:20:09.865Z,20.83
2018-10-12T00:22:39.051Z,20.63
2018-10-12T00:25:08.444Z,23.97
2018-10-12T00:27:37.604Z,21.30
2018-10-12T00:30:06.654Z,23.13
2018-10-12T00:32:35.632Z,21.47
2018-10-12T00:35:04.944Z,19.30
2018-10-12T00:37:34.151Z,22.37
2018-10-12T00:40:03.350Z,22.63
2018-10-12T00:42:32.269Z,20.40
2018-10-12T00:45:01.218Z,23.47
2018-10-12T00:47:30.393Z,22.10
2018-10-12T00:49:59.387Z,20.90
2018-10-12T00:52:28.550Z,22.27
2018-10-12T00:54:57.888Z,21.20
2018-10-12T00:57:26.859Z,20.50
2018-10-12T00:59:56.079Z,26.10
2018-10-12T01:02:24.994Z,21.07
2018-10-12T01:04:54.115Z,19.13
2018-10-12T01:07:23.416Z,22.03
2018-10-12T01:09:52.352Z,22.07
2018-10-12T01:12:31.812Z,22.03
2018-10-12T01:15:01.163Z,22.37
2018-10-12T01:17:30.734Z,26.23
2018-10-12T01:19:59.999Z,21.67
2018-10-12T01:22:30.159Z,22.33
2018-10-12T01:25:00.326Z,20.17
2018-10-12T01:27:29.946Z,22.77
2018-10-12T01:29:59.266Z,22.83
2018-10-12T01:32:33.712Z,25.07
2018-10-12T01:35:02.720Z,24.13
2018-10-12T01:37:31.680Z,25.37
2018-10-12T01:40:00.660Z,21.60
2018-10-12T01:42:29.800Z,24.07
2018-10-12T01:44:58.720Z,24.27
2018-10-12T01:47:27.636Z,23.20
2018-10-12T01:49:56.807Z,23.70
2018-10-12T01:52:25.967Z,22.73
2018-10-12T01:54:55.225Z,22.13
2018-10-12T01:57:24.173Z,21.23
2018-10-12T01:59:53.403Z,23.33
2018-10-12T02:02:22.573Z,21.37
2018-10-12T02:04:51.499Z,21.80
2018-10-12T02:07:20.418Z,23.07
2018-10-12T02:09:49.346Z,21.00
2018-10-12T02:12:18.289Z,24.47
2018-10-12T02:14:47.586Z,23.57
2018-10-12T02:17:16.565Z,25.13
2018-10-12T02:19:45.575Z,21.73
2018-10-12T02:22:14.548Z,25.87
2018-10-12T02:24:43.719Z,23.80
2018-10-12T02:27:12.639Z,24.83
2018-10-12T02:29:41.622Z,25.67
2018-10-12T02:32:10.795Z,28.20
2018-10-12T02:34:39.812Z,23.03
2018-10-12T02:37:08.739Z,25.27
2018-10-12T02:39:38.093Z,25.83
2018-10-12T02:42:07.941Z,27.53
2018-10-12T02:44:37.185Z,26.00
2018-10-12T02:47:06.392Z,26.03
2018-10-12T02:49:35.555Z,26.37
2018-10-12T02:52:04.723Z,28.37
2018-10-12T02:54:33.638Z,30.00
2018-10-12T02:57:02.611Z,28.97
2018-10-12T02:59:31.576Z,23.60
2018-10-12T03:02:00.626Z,26.33
2018-10-12T03:04:29.550Z,23.93
2018-10-12T03:06:58.555Z,26.53
2018-10-12T03:09:27.527Z,26.80
2018-10-12T03:11:56.712Z,26.80
2018-10-12T03:14:25.639Z,24.73
2018-10-12T03:16:54.616Z,24.40
2018-10-12T03:19:23.902Z,24.30
2018-10-12T03:21:52.870Z,24.93
2018-10-12T03:24:22.066Z,23.60
2018-10-12T03:26:51.239Z,25.67
2018-10-12T03:29:20.437Z,27.37
2018-10-12T03:31:49.723Z,24.77
2018-10-12T03:34:18.929Z,23.57
2018-10-12T03:36:48.236Z,26.33
2018-10-12T03:39:17.311Z,25.40
2018-10-12T03:41:46.596Z,27.47
2018-10-12T03:44:15.547Z,21.80
2018-10-12T03:46:44.610Z,25.13
2018-10-12T03:49:13.762Z,24.00
2018-10-12T03:51:42.901Z,24.73
2018-10-12T03:54:12.307Z,25.03
2018-10-12T03:56:41.717Z,31.53
2018-10-12T03:59:10.942Z,25.10
2018-10-12T04:01:40.138Z,24.90
2018-10-12T04:04:09.026Z,24.70
2018-10-12T04:06:37.953Z,26.57
2018-10-12T04:09:08.507Z,21.97
2018-10-12T04:11:37.497Z,23.23
2018-10-12T04:14:06.610Z,22.60
2018-10-12T04:16:35.746Z,23.80
2018-10-12T04:19:04.893Z,27.50
2018-10-12T04:21:34.103Z,23.70
2018-10-12T04:24:03.213Z,23.50
2018-10-12T04:26:32.342Z,26.73
2018-10-12T04:29:01.241Z,25.80
2018-10-12T04:31:30.385Z,23.27
2018-10-12T04:33:59.280Z,21.10
2018-10-12T04:36:28.420Z,30.00
2018-10-12T04:39:08.589Z,24.37
2018-10-12T04:41:37.520Z,20.40
2018-10-12T04:44:06.666Z,24.03
2018-10-12T04:46:38.320Z,25.57
2018-10-12T04:49:08.810Z,20.80
2018-10-12T04:51:43.401Z,24.37
2018-10-12T04:54:12.351Z,20.47
2018-10-12T04:56:41.469Z,23.17
2018-10-12T04:59:10.369Z,22.17
2018-10-12T05:01:39.262Z,23.43
2018-10-12T05:04:08.429Z,22.67
2018-10-12T05:06:37.533Z,21.60
2018-10-12T05:09:08.980Z,21.77
2018-10-12T05:11:38.297Z,21.10
2018-10-12T05:14:07.308Z,20.03
2018-10-12T05:16:36.777Z,21.40
2018-10-12T05:19:06.292Z,20.63
2018-10-12T05:21:35.481Z,20.73
2018-10-12T05:24:05.864Z,23.77
2018-10-12T05:26:35.037Z,22.60
2018-10-12T05:29:04.264Z,23.13
2018-10-12T05:31:33.409Z,21.80
2018-10-12T05:34:02.639Z,21.17
2018-10-12T05:36:31.770Z,24.63
2018-10-12T05:39:00.914Z,19.90
2018-10-12T05:41:30.061Z,23.40
2018-10-12T05:43:59.190Z,20.80
2018-10-12T05:46:28.389Z,20.83
2018-10-12T05:49:14.606Z,19.03
2018-10-12T05:51:44.453Z,21.37
2018-10-12T05:54:14.093Z,24.13
2018-10-12T05:56:44.338Z,24.97
2018-10-12T05:59:14.405Z,22.97
2018-10-12T06:01:43.545Z,22.87
2018-10-12T06:04:12.768Z,25.90
2018-10-12T06:06:41.926Z,24.63
2018-10-12T06:09:11.074Z,19.63
2018-10-12T06:11:40.221Z,18.07
2018-10-12T06:14:09.407Z,22.13
2018-10-12T06:16:38.329Z,20.73
2018-10-12T06:19:07.451Z,18.37
2018-10-12T06:21:36.437Z,20.37
2018-10-12T06:24:05.622Z,21.30
2018-10-12T06:26:34.887Z,22.67
2018-10-12T06:29:04.022Z,21.03
2018-10-12T06:31:32.976Z,21.67
2018-10-12T06:34:01.913Z,23.33
2018-10-12T06:36:31.062Z,20.67
2018-10-12T06:38:59.956Z,17.30
2018-10-12T06:41:29.204Z,18.60
2018-10-12T06:43:58.284Z,21.53
2018-10-12T06:46:27.262Z,16.87
2018-10-12T06:48:56.341Z,19.17
2018-10-12T06:51:25.498Z,22.03
2018-10-12T06:53:54.676Z,19.03
2018-10-12T06:56:23.632Z,20.43
2018-10-12T06:58:52.839Z,20.63
2018-10-12T07:01:22.013Z,19.73
2018-10-12T07:03:50.970Z,17.87
2018-10-12T07:06:20.165Z,19.43
2018-10-12T07:08:49.148Z,16.63
2018-10-12T07:11:18.170Z,17.27
2018-10-12T07:13:47.794Z,17.33
2018-10-12T07:16:17.421Z,19.10
2018-10-12T07:18:46.552Z,18.23
2018-10-12T07:21:15.766Z,16.50
2018-10-12T07:23:44.949Z,17.63
2018-10-12T07:26:14.151Z,16.23
2018-10-12T07:28:43.309Z,15.37
2018-10-12T07:31:12.201Z,19.47
2018-10-12T07:33:41.474Z,17.63
2018-10-12T07:36:10.741Z,17.67
2018-10-12T07:38:39.961Z,17.63
2018-10-12T07:41:09.150Z,19.13
2018-10-12T07:43:38.060Z,22.37
2018-10-12T07:46:07.447Z,15.40
2018-10-12T07:48:36.438Z,15.77
2018-10-12T07:51:05.349Z,16.37
2018-10-12T07:53:34.304Z,17.20
2018-10-12T07:56:03.435Z,17.43
2018-10-12T07:58:32.640Z,17.13
2018-10-12T08:01:01.873Z,16.33
2018-10-12T08:03:30.800Z,17.80
2018-10-12T08:05:59.923Z,15.73
2018-10-12T08:08:28.849Z,17.90
2018-10-12T08:10:57.979Z,14.97
2018-10-12T08:13:27.258Z,15.80
2018-10-12T08:15:58.066Z,20.00
2018-10-12T08:18:28.509Z,16.40
2018-10-12T08:20:57.625Z,20.10
2018-10-12T08:23:26.761Z,17.90
2018-10-12T08:25:55.657Z,18.00
2018-10-12T08:28:24.845Z,16.17
2018-10-12T08:30:53.978Z,14.97
2018-10-12T08:33:22.985Z,17.00
2018-10-12T08:35:51.877Z,21.77
2018-10-12T08:38:21.030Z,22.30
2018-10-12T08:40:49.924Z,17.33
2018-10-12T08:43:19.067Z,17.80
2018-10-12T08:45:48.287Z,13.83
2018-10-12T08:48:17.548Z,14.37
2018-10-12T08:50:46.773Z,18.40
2018-10-12T08:53:15.905Z,14.50
2018-10-12T08:55:45.046Z,14.47
2018-10-12T08:58:14.185Z,14.20
2018-10-12T09:00:43.353Z,14.27
2018-10-12T09:03:12.290Z,16.73
2018-10-12T09:05:41.490Z,13.27
2018-10-12T09:08:10.669Z,19.47
2018-10-12T09:10:39.822Z,11.90
2018-10-12T09:13:08.967Z,19.67
2018-10-12T09:15:38.085Z,16.97
2018-10-12T09:18:06.994Z,14.03
2018-10-12T09:20:36.168Z,14.50
2018-10-12T09:23:05.121Z,13.47
2018-10-12T09:25:34.261Z,13.57
2018-10-12T09:28:03.458Z,15.20
2018-10-12T09:30:32.401Z,20.30
2018-10-12T09:33:01.637Z,18.33
2018-10-12T09:35:30.560Z,13.20
2018-10-12T09:37:59.725Z,13.53
2018-10-12T09:40:28.666Z,16.17
2018-10-12T09:43:05.519Z,14.80
2018-10-12T09:45:34.682Z,13.17
2018-10-12T09:48:03.825Z,24.40
2018-10-12T09:50:32.958Z,14.33
2018-10-12T09:53:02.138Z,15.20
2018-10-12T09:55:31.287Z,11.33
2018-10-12T09:58:00.414Z,15.10
2018-10-12T10:00:34.898Z,11.60
2018-10-12T10:03:09.262Z,15.17
2018-10-12T10:05:38.455Z,15.80
2018-10-12T10:08:07.681Z,14.07
2018-10-12T10:10:36.777Z,15.90
2018-10-12T10:13:05.910Z,13.13
2018-10-12T10:15:35.163Z,17.93
2018-10-12T10:18:04.396Z,14.23
2018-10-12T10:20:33.626Z,12.50
2018-10-12T10:23:02.838Z,14.23
2018-10-12T10:25:32.719Z,17.77
2018-10-12T10:28:01.893Z,14.53
2018-10-12T10:30:31.050Z,15.13
2018-10-12T10:33:00.182Z,14.00
2018-10-12T10:35:29.118Z,14.87
2018-10-12T10:37:58.328Z,12.43
2018-10-12T10:40:27.229Z,11.80
2018-10-12T10:42:56.385Z,10.70
2018-10-12T10:45:25.762Z,11.47
2018-10-12T10:47:54.900Z,10.20
2018-10-12T10:50:24.159Z,8.93
2018-10-12T10:52:53.280Z,10.67
2018-10-12T10:55:22.409Z,9.60
2018-10-12T10:57:51.574Z,11.60
2018-10-12T11:00:20.480Z,12.33
2018-10-12T11:02:49.620Z,10.00
2018-10-12T11:05:18.818Z,12.07
2018-10-12T11:07:47.922Z,9.10
2018-10-12T11:10:16.825Z,12.83
2018-10-12T11:12:45.980Z,8.63
2018-10-12T11:15:18.521Z,8.57
2018-10-12T11:17:47.403Z,8.67
2018-10-12T11:20:16.453Z,9.43
2018-10-12T11:22:46.179Z,11.07
2018-10-12T11:25:15.704Z,8.53
2018-10-12T11:27:44.658Z,10.80
2018-10-12T11:30:14.566Z,9.17
2018-10-12T11:32:44.405Z,7.70
2018-10-12T11:35:14.141Z,9.53
2018-10-12T11:37:43.176Z,8.17
2018-10-12T11:40:12.501Z,7.63
2018-10-12T11:42:58.585Z,13.13
2018-10-12T11:45:27.948Z,8.20
2018-10-12T11:47:56.874Z,10.93
2018-10-12T11:50:26.158Z,10.63
2018-10-12T11:52:55.332Z,11.87
2018-10-12T11:55:24.453Z,8.63
2018-10-12T11:57:53.638Z,11.63
2018-10-12T12:00:23.478Z,11.07
2018-10-12T12:02:52.598Z,8.10
2018-10-12T12:05:21.737Z,9.83
2018-10-12T12:07:50.849Z,8.90
2018-10-12T12:10:20.003Z,13.40
2018-10-12T12:12:51.138Z,8.93
2018-10-12T12:15:20.238Z,8.63
2018-10-12T12:17:49.381Z,12.73
2018-10-12T12:20:18.277Z,11.43
2018-10-12T12:22:47.451Z,14.70
2018-10-12T12:25:16.649Z,8.27
2018-10-12T12:27:46.843Z,8.87
2018-10-12T12:30:16.005Z,8.90
2018-10-12T12:32:44.977Z,10.77
2018-10-12T12:35:14.513Z,11.73
2018-10-12T12:37:43.211Z,8.93
2018-10-12T12:40:12.857Z,9.50
2018-10-12T12:42:41.864Z,6.37
2018-10-12T12:45:14.174Z,7.73
2018-10-12T12:47:43.518Z,6.57
2018-10-12T12:50:14.516Z,8.87
2018-10-12T12:52:43.782Z,7.90
2018-10-12T12:55:12.929Z,7.77
2018-10-12T12:57:42.302Z,10.77
2018-10-12T13:00:11.285Z,8.87
2018-10-12T13:02:40.463Z,7.57
2018-10-12T13:05:09.424Z,11.67
2018-10-12T13:07:38.769Z,5.60
2018-10-12T13:10:08.035Z,7.70
2018-10-12T13:12:36.919Z,6.10
2018-10-12T13:15:06.666Z,9.87
2018-10-12T13:17:35.918Z,14.20
2018-10-12T13:20:05.363Z,6.20
2018-10-12T13:22:34.645Z,6.33
2018-10-12T13:25:03.862Z,10.03
2018-10-12T13:27:33.082Z,7.63
2018-10-12T13:30:02.259Z,6.47
2018-10-12T13:32:31.573Z,9.00
2018-10-12T13:35:00.790Z,13.27
2018-10-12T13:37:30.053Z,12.43
2018-10-12T13:39:59.599Z,9.87
2018-10-12T13:42:28.743Z,6.73
2018-10-12T13:44:57.995Z,8.07
2018-10-12T13:47:26.885Z,7.10
2018-10-12T13:49:55.842Z,7.60
2018-10-12T13:52:24.829Z,6.77
2018-10-12T13:54:53.926Z,10.40
2018-10-12T13:57:23.465Z,7.07
2018-10-12T13:59:52.465Z,7.20
2018-10-12T14:02:21.461Z,8.60
2018-10-12T14:04:50.519Z,7.83
2018-10-12T14:07:19.573Z,9.03
2018-10-12T14:09:48.686Z,6.00
2018-10-12T14:12:17.575Z,8.57
2018-10-12T14:14:46.716Z,6.10
2018-10-12T14:17:15.852Z,6.50
2018-10-12T14:19:45.222Z,13.90
2018-10-12T14:22:14.485Z,7.80
2018-10-12T14:24:43.604Z,7.27
2018-10-12T14:27:12.930Z,7.63
2018-10-12T14:29:42.078Z,7.13
2018-10-12T14:32:10.978Z,6.43
2018-10-12T14:34:40.129Z,8.63
2018-10-12T14:37:09.006Z,6.60
2018-10-12T14:39:38.265Z,6.43
2018-10-12T14:42:07.189Z,9.80
2018-10-12T14:44:36.410Z,7.80
2018-10-12T14:47:05.635Z,6.03
2018-10-12T14:49:34.749Z,9.40
2018-10-12T14:52:03.881Z,8.67
2018-10-12T14:54:33.005Z,7.10
2018-10-12T14:57:01.874Z,7.57
2018-10-12T14:59:30.751Z,12.40
2018-10-12T15:01:59.842Z,9.97
2018-10-12T15:04:28.953Z,6.53
2018-10-12T15:06:58.074Z,7.33
2018-10-12T15:09:27.201Z,6.93
2018-10-12T15:11:56.086Z,7.53
2018-10-12T15:14:43.741Z,8.50
2018-10-12T15:17:12.945Z,10.03
2018-10-12T15:19:42.299Z,7.33
2018-10-12T15:22:11.952Z,5.83
2018-10-12T15:24:41.119Z,5.37
2018-10-12T15:27:10.009Z,6.70
2018-10-12T15:29:39.154Z,5.63
2018-10-12T15:32:08.296Z,4.77
2018-10-12T15:34:37.575Z,5.43
2018-10-12T15:37:06.789Z,8.93
2018-10-12T15:39:35.638Z,5.97
2018-10-12T15:42:04.804Z,8.73
2018-10-12T15:44:33.925Z,8.90
2018-10-12T15:47:03.044Z,8.87
2018-10-12T15:49:32.157Z,8.97
2018-10-12T15:52:01.262Z,8.63
2018-10-12T15:54:30.477Z,10.53
2018-10-12T15:56:59.639Z,11.87
2018-10-12T15:59:28.493Z,13.27
2018-10-12T16:01:57.396Z,10.20
2018-10-12T16:04:26.522Z,13.53
2018-10-12T16:06:55.420Z,11.47
2018-10-12T16:09:24.538Z,13.10
2018-10-12T16:11:53.690Z,12.37
2018-10-12T16:14:22.846Z,14.37
2018-10-12T16:16:51.990Z,18.73
2018-10-12T16:19:21.114Z,14.27
2018-10-12T16:21:50.533Z,11.97
2018-10-12T16:24:20.189Z,13.23
2018-10-12T16:26:52.158Z,12.30
2018-10-12T16:29:22.390Z,16.00
2018-10-12T16:31:51.313Z,11.20
2018-10-12T16:34:20.317Z,12.57
2018-10-12T16:36:49.210Z,14.70
2018-10-12T16:39:18.119Z,12.87
2018-10-12T16:41:47.325Z,13.43
2018-10-12T16:44:16.241Z,11.30
2018-10-12T16:46:45.354Z,11.73
2018-10-12T16:49:14.464Z,16.67
2018-10-12T16:51:43.753Z,15.03
2018-10-12T16:54:12.842Z,11.17
2018-10-12T16:56:41.983Z,14.80
2018-10-12T16:59:11.183Z,14.20
2018-10-12T17:01:40.373Z,9.70
2018-10-12T17:04:09.616Z,12.23
2018-10-12T17:06:38.684Z,13.33
2018-10-12T17:09:07.665Z,10.23
2018-10-12T17:11:36.553Z,10.80
2018-10-12T17:14:05.511Z,10.93
2018-10-12T17:16:34.605Z,13.27
2018-10-12T17:19:03.722Z,13.80
2018-10-12T17:21:32.841Z,9.50
2018-10-12T17:24:02.002Z,12.20
2018-10-12T17:26:30.939Z,11.60
2018-10-12T17:29:03.219Z,10.67
2018-10-12T17:31:32.140Z,9.97
2018-10-12T17:34:01.278Z,10.90
2018-10-12T17:36:30.461Z,14.07
2018-10-12T17:38:59.553Z,8.00
2018-10-12T17:41:28.482Z,11.03
2018-10-12T17:43:57.606Z,14.97
2018-10-12T17:46:26.709Z,8.77
2018-10-12T17:48:55.591Z,9.80
2018-10-12T17:51:24.469Z,11.83
2018-10-12T17:53:53.669Z,11.53
2018-10-12T17:56:23.435Z,10.53
2018-10-12T17:58:52.542Z,10.80
2018-10-12T18:01:21.659Z,13.33
2018-10-12T18:03:50.560Z,10.63
2018-10-12T18:06:19.686Z,12.90
2018-10-12T18:08:48.810Z,10.37
2018-10-12T18:11:17.913Z,13.67
2018-10-12T18:13:46.802Z,11.53
2018-10-12T18:16:15.937Z,12.50
2018-10-12T18:18:45.054Z,12.07
2018-10-12T18:21:14.181Z,12.03
2018-10-12T18:23:43.342Z,13.17
2018-10-12T18:26:12.474Z,14.47
2018-10-12T18:28:41.598Z,10.50
2018-10-12T18:31:10.514Z,13.73
2018-10-12T18:33:39.621Z,14.43
2018-10-12T18:36:08.734Z,9.23
2018-10-12T18:38:37.942Z,15.10
2018-10-12T18:41:07.054Z,13.13
2018-10-12T18:43:35.971Z,14.83
2018-10-12T18:46:04.947Z,15.60
2018-10-12T18:48:33.821Z,13.40
2018-10-12T18:51:02.939Z,12.57
2018-10-12T18:53:32.070Z,13.60
2018-10-12T18:56:00.969Z,14.53
2018-10-12T18:58:29.843Z,17.20
2018-10-12T19:00:58.958Z,19.90
2018-10-12T19:03:28.199Z,18.77
2018-10-12T19:05:57.164Z,16.57
2018-10-12T19:08:26.284Z,15.50
2018-10-12T19:10:55.197Z,17.23
2018-10-12T19:13:24.162Z,20.83
2018-10-12T19:15:53.852Z,14.30
2018-10-12T19:18:22.987Z,19.47
2018-10-12T19:20:52.214Z,18.67
2018-10-12T19:23:21.201Z,17.83
2018-10-12T19:25:50.553Z,14.90
2018-10-12T19:28:19.506Z,20.53
2018-10-12T19:30:48.401Z,19.33
2018-10-12T19:33:17.546Z,19.07
2018-10-12T19:35:56.399Z,17.87
2018-10-12T19:38:25.492Z,21.83
2018-10-12T19:40:54.725Z,16.23
2018-10-12T19:43:23.669Z,20.80
2018-10-12T19:45:52.597Z,17.80
2018-10-12T19:48:21.817Z,24.20
2018-10-12T19:50:50.732Z,18.50
2018-10-12T19:53:19.710Z,17.97
2018-10-12T19:55:48.839Z,23.80
2018-10-12T19:58:19.040Z,18.07
2018-10-12T20:00:48.245Z,16.20
2018-10-12T20:03:17.365Z,18.63
2018-10-12T20:05:46.487Z,18.83
2018-10-12T20:08:15.380Z,19.27
2018-10-12T20:10:44.841Z,15.87
2018-10-12T20:13:13.972Z,17.93
2018-10-12T20:15:43.233Z,16.13
2018-10-12T20:18:12.167Z,19.53
2018-10-12T20:20:41.411Z,15.27
2018-10-12T20:23:10.566Z,15.60
2018-10-12T20:25:39.770Z,18.67
2018-10-12T20:28:08.903Z,16.47
2018-10-12T20:30:38.070Z,16.53
2018-10-12T20:33:06.977Z,13.87
2018-10-12T20:35:36.126Z,10.67
2018-10-12T20:38:05.042Z,11.50
2018-10-12T20:40:34.163Z,13.73
2018-10-12T20:43:03.269Z,10.93
2018-10-12T20:45:32.140Z,13.47
2018-10-12T20:48:01.261Z,15.43
2018-10-12T20:50:30.387Z,11.73
2018-10-12T20:52:59.569Z,11.67
2018-10-12T20:55:28.698Z,10.80
2018-10-12T20:57:58.118Z,11.50
2018-10-12T21:00:27.258Z,9.90
2018-10-12T21:02:57.014Z,11.80
2018-10-12T21:05:26.121Z,10.20
2018-10-12T21:07:55.158Z,10.83
2018-10-12T21:10:24.281Z,11.33
2018-10-12T21:12:53.205Z,10.43
2018-10-12T21:15:22.338Z,11.30
2018-10-12T21:17:51.451Z,11.47
2018-10-12T21:20:20.617Z,12.87
2018-10-12T21:22:49.850Z,13.60
2018-10-12T21:25:19.126Z,11.67
2018-10-12T21:27:48.215Z,11.37
2018-10-12T21:30:18.822Z,11.27
2018-10-12T21:32:47.981Z,10.10
2018-10-12T21:35:16.961Z,11.00
2018-10-12T21:37:46.094Z,13.87
2018-10-12T21:40:15.041Z,11.27
2018-10-12T21:42:44.141Z,12.77
2018-10-12T21:45:13.285Z,11.07
2018-10-12T21:47:42.431Z,10.77
2018-10-12T21:50:11.534Z,11.87
2018-10-12T21:52:40.670Z,10.67
2018-10-12T21:55:09.790Z,13.00
2018-10-12T21:57:38.954Z,9.63
2018-10-12T22:00:08.181Z,13.20
2018-10-12T22:02:37.245Z,13.47
2018-10-12T22:05:06.377Z,11.83
2018-10-12T22:07:35.367Z,14.03
2018-10-12T22:10:04.638Z,10.77
2018-10-12T22:12:33.770Z,10.60
2018-10-12T22:15:02.657Z,9.90
2018-10-12T22:17:31.790Z,12.80
2018-10-12T22:20:00.910Z,12.30
2018-10-12T22:22:30.042Z,13.03
2018-10-12T22:24:58.930Z,11.57
2018-10-12T22:27:28.067Z,13.00
2018-10-12T22:29:57.255Z,12.57
2018-10-12T22:32:26.405Z,18.00
2018-10-12T22:34:55.546Z,19.07
2018-10-12T22:37:24.684Z,18.73
2018-10-12T22:39:53.561Z,14.70
2018-10-12T22:42:22.716Z,15.17
2018-10-12T22:44:51.829Z,13.53
2018-10-12T22:47:20.917Z,13.27
2018-10-12T22:49:50.061Z,19.93
2018-10-12T22:52:19.333Z,15.27
2018-10-12T22:54:48.441Z,12.27
2018-10-12T22:57:17.567Z,13.47
2018-10-12T22:59:46.481Z,15.13
2018-10-12T23:02:15.761Z,13.53
2018-10-12T23:04:44.650Z,13.27
2018-10-12T23:07:13.571Z,16.33
2018-10-12T23:09:42.515Z,15.03
2018-10-12T23:12:11.641Z,17.70
2018-10-12T23:14:40.826Z,13.67
2018-10-12T23:17:09.949Z,14.70
2018-10-12T23:19:39.249Z,19.10
2018-10-12T23:22:08.898Z,18.33
2018-10-12T23:24:38.022Z,16.47
2018-10-12T23:27:07.381Z,14.03
2018-10-12T23:29:36.268Z,16.03
2018-10-12T23:32:05.162Z,13.90
2018-10-12T23:34:34.277Z,19.07
2018-10-12T23:37:03.169Z,13.50
2018-10-12T23:39:32.297Z,14.97
2018-10-12T23:42:01.191Z,13.83
2018-10-12T23:44:30.308Z,14.90
2018-10-12T23:46:59.202Z,17.00
2018-10-12T23:49:28.367Z,14.70
2018-10-12T23:51:57.492Z,17.73
2018-10-12T23:54:26.640Z,18.03
2018-10-12T23:56:55.757Z,16.57
2018-10-12T23:59:24.922Z,14.27
